Time;durP1;ratioP1;P1;durP2;ratioP2;P2;SDS_P1;SDS_P2;PMS_P1;PMS_P2;Temp;Humidity;BMP_temperature;BMP_pressure;BME280_temperature;BME280_humidity;BME280_pressure;Samples;Min_cycle;Max_cycle;Signal;HPM_P1;HPM_P2
2023/01/08 00:01:26;;;;;;;9.13;7.18;;;7.20;99.90;;;;;;6199984;28;20050;-78
2023/01/08 00:04:28;;;;;;;12.00;8.43;;;7.20;99.90;;;;;;6146864;28;20467;-78
2023/01/08 00:07:30;;;;;;;11.02;7.38;;;7.20;99.90;;;;;;6197892;28;20123;-77
2023/01/08 00:10:31;;;;;;;10.05;6.07;;;7.10;99.90;;;;;;6198907;28;20054;-76
2023/01/08 00:13:34;;;;;;;9.15;7.10;;;7.10;99.90;;;;;;6199160;28;20042;-77
2023/01/08 00:16:37;;;;;;;8.57;6.40;;;7.10;99.90;;;;;;6183587;28;20533;-77
2023/01/08 00:19:40;;;;;;;9.10;7.00;;;7.10;99.90;;;;;;6180967;28;20051;-78
2023/01/08 00:22:42;;;;;;;9.07;6.57;;;7.00;99.90;;;;;;6180975;28;20047;-77
2023/01/08 00:25:44;;;;;;;10.40;6.90;;;7.00;99.90;;;;;;6175885;28;20053;-78
2023/01/08 00:28:46;;;;;;;8.35;5.70;;;6.90;99.90;;;;;;6174214;28;20055;-79
2023/01/08 00:31:49;;;;;;;8.25;6.88;;;6.90;99.90;;;;;;6193023;28;20053;-79
2023/01/08 00:34:53;;;;;;;9.27;7.22;;;6.90;99.90;;;;;;6199498;28;20066;-77
2023/01/08 00:37:55;;;;;;;11.68;6.88;;;6.90;99.90;;;;;;6198920;28;20489;-78
2023/01/08 00:40:57;;;;;;;8.50;6.97;;;6.80;99.90;;;;;;6198908;28;20054;-78
2023/01/08 00:43:59;;;;;;;12.48;7.68;;;6.80;99.90;;;;;;6199061;28;20046;-78
2023/01/08 00:47:02;;;;;;;12.93;7.78;;;6.90;99.90;;;;;;6198553;28;20046;-77
2023/01/08 00:50:05;;;;;;;9.25;7.57;;;6.80;99.90;;;;;;6199051;28;20054;-77
2023/01/08 00:53:06;;;;;;;9.27;8.27;;;6.80;99.90;;;;;;6199264;28;20038;-78
2023/01/08 00:56:10;;;;;;;9.60;6.78;;;6.80;99.90;;;;;;6198976;28;20054;-77
2023/01/08 00:59:11;;;;;;;12.32;6.90;;;6.80;99.90;;;;;;6198561;28;20050;-77
2023/01/08 01:02:15;;;;;;;7.60;6.55;;;6.80;99.90;;;;;;6199189;28;20057;-77
2023/01/08 01:05:17;;;;;;;8.50;6.63;;;6.80;99.90;;;;;;6198039;28;20059;-77
2023/01/08 01:08:18;;;;;;;10.32;7.28;;;6.80;99.90;;;;;;6198047;28;20054;-77
2023/01/08 01:11:23;;;;;;;8.63;6.60;;;6.90;99.90;;;;;;6198663;28;20431;-78
2023/01/08 01:14:25;;;;;;;10.20;7.53;;;6.90;99.90;;;;;;6199104;28;20042;-77
2023/01/08 01:17:28;;;;;;;9.80;7.18;;;6.90;99.90;;;;;;6197734;28;20046;-76
2023/01/08 01:20:30;;;;;;;11.75;8.82;;;7.00;99.90;;;;;;6192149;28;20057;-77
2023/01/08 01:23:32;;;;;;;7.65;6.55;;;7.00;99.90;;;;;;6178452;28;20043;-79
2023/01/08 01:26:34;;;;;;;9.90;8.43;;;7.00;99.90;;;;;;6178951;28;20055;-77
2023/01/08 01:29:36;;;;;;;10.32;7.70;;;6.90;99.90;;;;;;6196621;28;20663;-78
2023/01/08 01:32:39;;;;;;;9.77;7.95;;;6.90;99.90;;;;;;6197436;28;20057;-77
2023/01/08 01:35:40;;;;;;;8.23;6.63;;;6.90;99.90;;;;;;6197161;28;20049;-77
2023/01/08 01:38:43;;;;;;;8.45;7.53;;;6.80;99.90;;;;;;6197386;28;20054;-77
2023/01/08 01:41:46;;;;;;;7.88;6.43;;;6.80;99.90;;;;;;6198310;28;20061;-77
2023/01/08 01:44:48;;;;;;;8.82;6.63;;;6.80;99.90;;;;;;6197493;28;20050;-77
2023/01/08 01:47:57;;;;;;;9.50;6.80;;;6.70;99.90;;;;;;6194377;28;20073;-78
2023/01/08 01:50:59;;;;;;;8.27;7.18;;;6.80;99.90;;;;;;6197279;28;20057;-77
2023/01/08 01:54:03;;;;;;;9.65;7.35;;;6.80;99.90;;;;;;6198165;28;20047;-78
2023/01/08 01:57:06;;;;;;;7.85;7.05;;;6.80;99.90;;;;;;6196555;28;20155;-77
2023/01/08 02:00:09;;;;;;;10.65;6.95;;;6.90;99.90;;;;;;6196523;28;20054;-77
2023/01/08 02:03:14;;;;;;;9.73;7.35;;;6.90;99.90;;;;;;6196616;28;20527;-77
2023/01/08 02:06:29;;;;;;;10.93;6.18;;;6.90;99.90;;;;;;6198187;28;20057;-78
2023/01/08 02:09:41;;;;;;;10.38;8.73;;;6.90;99.90;;;;;;6196270;28;20519;-77
2023/01/08 02:12:46;;;;;;;8.70;7.00;;;6.90;99.90;;;;;;6197565;28;20121;-77
2023/01/08 02:15:56;;;;;;;8.35;6.65;;;6.90;99.90;;;;;;6197222;28;20046;-77
2023/01/08 02:19:04;;;;;;;10.02;6.95;;;6.90;99.90;;;;;;6196448;28;20046;-76
2023/01/08 02:22:20;;;;;;;9.05;7.38;;;6.90;99.90;;;;;;6185765;28;20539;-77
2023/01/08 02:25:32;;;;;;;14.82;6.95;;;6.90;99.90;;;;;;6174932;28;20057;-79
2023/01/08 02:28:40;;;;;;;13.32;7.85;;;6.90;99.90;;;;;;6171978;28;20047;-79
2023/01/08 02:31:43;;;;;;;;;;;6.90;99.90;;;;;;6172684;28;20043;-77
2023/01/08 02:34:44;;;;;;;10.70;6.95;;;6.90;99.90;;;;;;6172607;28;20399;-78
2023/01/08 02:37:46;;;;;;;11.07;7.65;;;6.90;99.90;;;;;;6171918;28;20121;-77
2023/01/08 02:40:56;;;;;;;12.20;8.60;;;6.90;99.90;;;;;;6171931;28;20531;-78
2023/01/08 02:44:00;;;;;;;11.00;7.00;;;7.00;99.90;;;;;;6172521;28;20051;-77
2023/01/08 02:47:05;;;;;;;11.70;7.95;;;7.00;99.90;;;;;;6172453;28;20481;-76
2023/01/08 02:50:13;;;;;;;10.68;7.72;;;7.00;99.90;;;;;;6172541;28;20054;-77
2023/01/08 02:53:19;;;;;;;15.07;8.00;;;7.00;99.90;;;;;;6172802;28;20054;-77
2023/01/08 02:56:24;;;;;;;10.32;6.97;;;7.10;99.90;;;;;;6172612;28;20053;-76
2023/01/08 02:59:29;;;;;;;10.80;7.72;;;7.10;99.90;;;;;;6172047;28;20189;-78
2023/01/08 03:02:35;;;;;;;12.73;8.27;;;7.10;99.90;;;;;;6173404;28;20619;-77
2023/01/08 03:05:40;;;;;;;10.07;9.05;;;7.10;99.90;;;;;;6172721;28;20106;-77
2023/01/08 03:08:43;;;;;;;8.50;7.47;;;7.10;99.90;;;;;;6172998;28;20046;-78
2023/01/08 03:11:51;;;;;;;9.20;7.07;;;7.20;99.90;;;;;;6176960;28;20125;-77
2023/01/08 03:14:58;;;;;;;10.13;8.85;;;7.20;99.90;;;;;;6177329;28;20061;-77
2023/01/08 03:18:04;;;;;;;12.32;8.20;;;7.30;99.90;;;;;;6177226;28;20047;-77
2023/01/08 03:21:07;;;;;;;10.55;8.10;;;7.20;99.90;;;;;;6176973;28;20046;-77
2023/01/08 03:24:11;;;;;;;10.30;7.93;;;7.30;99.90;;;;;;6195250;28;20043;-80
2023/01/08 03:27:16;;;;;;;10.43;6.93;;;7.30;99.90;;;;;;6201105;28;20050;-78
2023/01/08 03:30:21;;;;;;;13.57;7.85;;;7.30;99.90;;;;;;6201585;28;20061;-77
2023/01/08 03:33:25;;;;;;;13.45;9.30;;;7.30;99.90;;;;;;6200838;28;20050;-78
2023/01/08 03:36:28;;;;;;;9.57;7.13;;;7.30;99.90;;;;;;6200304;28;20073;-77
2023/01/08 03:39:33;;;;;;;9.70;7.88;;;7.30;99.90;;;;;;6200226;28;20427;-77
2023/01/08 03:42:35;;;;;;;9.73;7.10;;;7.30;99.90;;;;;;6201480;28;20054;-77
2023/01/08 03:45:42;;;;;;;9.63;7.38;;;7.40;99.90;;;;;;6197620;28;20066;-77
2023/01/08 03:48:45;;;;;;;8.95;7.53;;;7.40;99.90;;;;;;6200021;28;20050;-77
2023/01/08 03:51:48;;;;;;;9.02;7.78;;;7.40;99.90;;;;;;6200309;28;20508;-78
2023/01/08 03:54:50;;;;;;;12.50;8.30;;;7.40;99.90;;;;;;6200289;28;20062;-78
2023/01/08 03:57:51;;;;;;;11.63;6.95;;;7.40;99.90;;;;;;6200492;28;20050;-77
2023/01/08 04:00:54;;;;;;;8.80;7.90;;;7.40;99.90;;;;;;6200089;28;20046;-77
2023/01/08 04:03:56;;;;;;;9.80;8.13;;;7.40;99.90;;;;;;6200191;28;20046;-79
2023/01/08 04:06:58;;;;;;;11.15;8.63;;;7.40;99.90;;;;;;6200251;28;20043;-77
2023/01/08 04:09:59;;;;;;;9.55;8.43;;;7.40;99.90;;;;;;6199893;28;20062;-77
2023/01/08 04:13:02;;;;;;;9.38;7.43;;;7.40;99.90;;;;;;6200136;28;20129;-78
2023/01/08 04:16:06;;;;;;;16.60;10.13;;;7.50;99.90;;;;;;6199778;28;20058;-77
2023/01/08 04:19:10;;;;;;;9.98;6.70;;;7.50;99.90;;;;;;6198740;28;20107;-77
2023/01/08 04:22:11;;;;;;;10.63;7.47;;;7.50;99.90;;;;;;6189368;28;20058;-78
2023/01/08 04:25:13;;;;;;;14.77;7.82;;;7.50;99.90;;;;;;6194027;28;20065;-77
2023/01/08 04:28:15;;;;;;;15.20;9.15;;;7.50;99.90;;;;;;6199129;28;20057;-76
2023/01/08 04:31:18;;;;;;;12.50;8.57;;;7.50;99.90;;;;;;6199418;28;20053;-77
2023/01/08 04:34:19;;;;;;;10.75;7.53;;;7.50;99.90;;;;;;6200199;28;20514;-78
2023/01/08 04:37:21;;;;;;;9.93;8.70;;;7.50;99.90;;;;;;6198561;28;20046;-76
2023/01/08 04:40:23;;;;;;;12.82;8.90;;;7.50;99.90;;;;;;6199099;28;20050;-77
2023/01/08 04:43:25;;;;;;;9.80;8.05;;;7.50;99.90;;;;;;6198946;28;20132;-79
2023/01/08 04:46:28;;;;;;;14.82;8.52;;;7.50;99.90;;;;;;6199512;28;20049;-78
2023/01/08 04:49:29;;;;;;;13.18;8.43;;;7.50;99.90;;;;;;6197938;28;20050;-78
2023/01/08 04:52:31;;;;;;;10.68;9.55;;;7.50;99.90;;;;;;6198324;28;20427;-77
2023/01/08 04:55:33;;;;;;;14.30;8.82;;;7.50;99.90;;;;;;6198569;28;20420;-78
2023/01/08 04:58:36;;;;;;;11.82;10.27;;;7.50;99.90;;;;;;6198085;28;20050;-77
2023/01/08 05:01:39;;;;;;;10.50;8.05;;;7.60;99.90;;;;;;6198522;28;20062;-78
2023/01/08 05:04:41;;;;;;;12.70;8.63;;;7.60;99.90;;;;;;6198573;28;20042;-77
2023/01/08 05:07:43;;;;;;;11.35;8.57;;;7.60;99.90;;;;;;6197110;28;20077;-77
2023/01/08 05:10:44;;;;;;;13.93;9.15;;;7.60;99.90;;;;;;6197891;28;20054;-77
2023/01/08 05:13:47;;;;;;;10.65;8.57;;;7.70;99.90;;;;;;6198825;28;20058;-77
2023/01/08 05:16:50;;;;;;;15.93;9.10;;;7.70;99.90;;;;;;6198140;28;20054;-78
2023/01/08 05:19:52;;;;;;;15.68;7.63;;;7.80;99.90;;;;;;6197395;28;20053;-77
2023/01/08 05:22:54;;;;;;;19.30;8.60;;;7.90;99.90;;;;;;6197846;28;20047;-78
2023/01/08 05:25:57;;;;;;;10.55;6.75;;;7.90;99.90;;;;;;6180797;28;20158;-79
2023/01/08 05:28:59;;;;;;;11.30;6.65;;;8.00;99.90;;;;;;6196866;28;20504;-77
2023/01/08 05:32:02;;;;;;;12.75;6.97;;;8.00;99.90;;;;;;6196636;28;20081;-77
2023/01/08 05:35:04;;;;;;;9.75;7.20;;;8.00;99.90;;;;;;6197665;28;20050;-77
2023/01/08 05:38:06;;;;;;;9.05;6.65;;;8.10;99.90;;;;;;6197135;28;20058;-77
2023/01/08 05:41:08;;;;;;;8.13;6.78;;;8.10;99.90;;;;;;6192881;28;20421;-77
2023/01/08 05:44:10;;;;;;;8.18;6.65;;;8.10;99.90;;;;;;6197162;28;20045;-77
2023/01/08 05:47:13;;;;;;;10.27;6.68;;;8.10;99.90;;;;;;6197573;28;20064;-77
2023/01/08 05:50:15;;;;;;;9.38;6.45;;;8.20;99.90;;;;;;6197675;28;20133;-77
2023/01/08 05:53:17;;;;;;;11.30;6.57;;;8.20;99.90;;;;;;6197152;28;20054;-78
2023/01/08 05:56:18;;;;;;;24.50;20.10;;;8.20;99.90;;;;;;6197233;28;20043;-77
2023/01/08 05:59:20;;;;;;;12.13;8.27;;;8.20;99.90;;;;;;6196621;28;20046;-77
2023/01/08 06:02:23;;;;;;;11.25;8.48;;;8.20;99.90;;;;;;6197421;28;20073;-77
2023/01/08 06:05:25;;;;;;;11.25;8.93;;;8.30;99.90;;;;;;6194836;28;20065;-78
2023/01/08 06:08:27;;;;;;;15.95;6.82;;;8.20;99.90;;;;;;6171662;28;20535;-77
2023/01/08 06:11:29;;;;;;;9.52;7.50;;;8.20;99.90;;;;;;6172245;28;20433;-77
2023/01/08 06:14:30;;;;;;;14.95;8.25;;;8.20;99.90;;;;;;6172925;28;20050;-78
2023/01/08 06:17:35;;;;;;;13.73;10.63;;;8.10;99.90;;;;;;6172859;28;20101;-78
2023/01/08 06:20:36;;;;;;;12.52;8.13;;;8.10;99.90;;;;;;6172202;28;20425;-78
2023/01/08 06:23:38;;;;;;;13.63;7.55;;;8.10;99.90;;;;;;6172375;28;20424;-77
2023/01/08 06:26:40;;;;;;;8.60;7.70;;;8.10;99.90;;;;;;6179478;28;20054;-77
2023/01/08 06:29:41;;;;;;;15.48;8.55;;;8.10;99.90;;;;;;6195194;28;20050;-77
2023/01/08 06:32:44;;;;;;;12.70;9.73;;;8.10;99.90;;;;;;6196638;28;20405;-77
2023/01/08 06:35:46;;;;;;;15.27;7.90;;;8.10;99.90;;;;;;6195957;28;20537;-78
2023/01/08 06:38:48;;;;;;;15.93;8.15;;;8.10;99.90;;;;;;6195209;28;20051;-77
2023/01/08 06:41:49;;;;;;;13.60;8.35;;;8.10;99.90;;;;;;6196296;28;20054;-78
2023/01/08 06:44:51;;;;;;;12.95;8.65;;;8.10;99.90;;;;;;6196018;28;20047;-78
2023/01/08 06:47:54;;;;;;;11.63;8.10;;;8.10;99.90;;;;;;6195210;28;20046;-77
2023/01/08 06:50:59;;;;;;;13.95;9.98;;;8.10;99.90;;;;;;6195938;28;20054;-77
2023/01/08 06:54:00;;;;;;;19.73;10.75;;;8.20;99.90;;;;;;6196586;28;20050;-77
2023/01/08 06:57:02;;;;;;;11.75;9.25;;;8.20;99.90;;;;;;6195431;28;20055;-77
2023/01/08 07:00:05;;;;;;;18.20;10.07;;;8.20;99.90;;;;;;6195267;28;20061;-77
2023/01/08 07:03:08;;;;;;;12.57;9.15;;;8.20;99.90;;;;;;6195906;28;20077;-78
2023/01/08 07:06:14;;;;;;;13.48;8.55;;;8.20;99.90;;;;;;6196269;28;20050;-78
2023/01/08 07:09:15;;;;;;;13.80;9.75;;;8.20;99.90;;;;;;6194731;28;20046;-77
2023/01/08 07:12:17;;;;;;;19.95;9.60;;;8.20;99.90;;;;;;6195943;28;20177;-77
2023/01/08 07:15:19;;;;;;;16.85;10.15;;;8.20;99.90;;;;;;6195857;28;20042;-78
2023/01/08 07:18:22;;;;;;;14.38;9.77;;;8.20;99.90;;;;;;6195724;28;20058;-77
2023/01/08 07:21:23;;;;;;;14.10;9.75;;;8.10;99.90;;;;;;6195406;28;20046;-78
2023/01/08 07:24:25;;;;;;;14.88;8.90;;;8.20;99.90;;;;;;6195595;28;20420;-77
2023/01/08 07:27:27;;;;;;;10.82;7.82;;;8.10;99.90;;;;;;6185658;28;20046;-77
2023/01/08 07:30:29;;;;;;;13.05;9.20;;;8.20;99.90;;;;;;6173921;28;20051;-78
2023/01/08 07:33:32;;;;;;;15.85;9.95;;;8.20;99.90;;;;;;6172534;28;20541;-77
2023/01/08 07:36:34;;;;;;;22.70;9.77;;;8.20;99.90;;;;;;6193894;28;20049;-78
2023/01/08 07:39:36;;;;;;;10.98;6.57;;;8.30;99.90;;;;;;6194802;28;20046;-78
2023/01/08 07:42:38;;;;;;;15.45;8.45;;;8.40;99.90;;;;;;6195427;28;20619;-78
2023/01/08 07:45:39;;;;;;;17.33;10.38;;;8.60;99.90;;;;;;6196065;28;20042;-78
2023/01/08 07:48:43;;;;;;;16.42;11.45;;;8.80;99.90;;;;;;6194252;28;20520;-78
2023/01/08 07:51:44;;;;;;;13.05;7.47;;;9.00;99.90;;;;;;6195262;28;20139;-78
2023/01/08 07:54:46;;;;;;;8.05;6.97;;;9.00;99.90;;;;;;6196069;28;20051;-78
2023/01/08 07:57:48;;;;;;;11.73;6.72;;;8.90;99.90;;;;;;6199510;28;20057;-78
2023/01/08 08:00:49;;;;;;;9.50;7.03;;;8.90;99.90;;;;;;6199289;28;20053;-78
2023/01/08 08:03:52;;;;;;;9.05;6.22;;;8.80;99.90;;;;;;6199434;28;20436;-79
2023/01/08 08:06:54;;;;;;;17.83;5.85;;;8.80;99.90;;;;;;6199291;28;20054;-78
2023/01/08 08:09:56;;;;;;;9.55;5.70;;;8.80;99.90;;;;;;6199324;28;20056;-78
2023/01/08 08:12:58;;;;;;;10.50;5.80;;;8.90;99.90;;;;;;6195898;28;20039;-77
2023/01/08 08:16:03;;;;;;;143.02;77.88;;;8.90;99.90;;;;;;6199039;28;20046;-77
2023/01/08 08:19:06;;;;;;;117.28;59.00;;;8.90;99.90;;;;;;6200290;28;20049;-78
2023/01/08 08:22:08;;;;;;;145.73;96.45;;;9.00;99.90;;;;;;6199606;28;20050;-78
2023/01/08 08:25:10;;;;;;;54.33;44.95;;;9.00;99.90;;;;;;6200458;28;20049;-78
2023/01/08 08:28:12;;;;;;;47.28;37.10;;;9.00;99.90;;;;;;6192871;28;20415;-77
2023/01/08 08:31:14;;;;;;;28.33;23.55;;;9.00;99.90;;;;;;6178774;28;20042;-78
2023/01/08 08:34:19;;;;;;;47.75;33.15;;;9.10;99.90;;;;;;6175681;28;20065;-77
2023/01/08 08:37:20;;;;;;;18.25;13.82;;;9.10;99.90;;;;;;6175417;28;20494;-78
2023/01/08 08:40:22;;;;;;;36.03;25.15;;;9.10;99.90;;;;;;6176701;28;20086;-78
2023/01/08 08:43:24;;;;;;;31.05;24.10;;;9.10;99.90;;;;;;6150574;28;20055;-77
2023/01/08 08:46:26;;;;;;;57.25;37.88;;;9.10;99.90;;;;;;6176719;28;20043;-77
2023/01/08 08:49:29;;;;;;;28.58;19.35;;;9.10;99.90;;;;;;6173990;28;20143;-77
2023/01/08 08:52:31;;;;;;;29.95;20.52;;;9.10;99.90;;;;;;6176740;28;20065;-77
2023/01/08 08:55:34;;;;;;;32.35;18.92;;;9.10;99.90;;;;;;6199661;28;20047;-77
2023/01/08 08:58:35;;;;;;;22.40;13.80;;;9.10;99.90;;;;;;6195488;28;20051;-78
2023/01/08 09:01:37;;;;;;;35.92;25.50;;;9.10;99.90;;;;;;6184386;28;20494;-78
2023/01/08 09:04:41;;;;;;;33.95;23.88;;;9.10;99.90;;;;;;6197201;28;20052;-79
2023/01/08 09:07:42;;;;;;;20.60;17.23;;;9.20;99.90;;;;;;6197072;28;20440;-78
2023/01/08 09:10:44;;;;;;;17.70;12.45;;;9.20;99.90;;;;;;6198154;28;20061;-78
2023/01/08 09:13:46;;;;;;;14.50;10.10;;;9.20;99.90;;;;;;6198120;28;20088;-78
2023/01/08 09:16:48;;;;;;;12.32;8.15;;;9.20;99.90;;;;;;6198031;28;20050;-78
2023/01/08 09:19:51;;;;;;;16.63;10.65;;;9.20;99.90;;;;;;6197551;28;20058;-78
2023/01/08 09:22:53;;;;;;;15.20;11.98;;;9.20;99.90;;;;;;6197850;28;20050;-78
2023/01/08 09:25:59;;;;;;;12.90;9.57;;;9.20;99.90;;;;;;6187148;28;20517;-77
2023/01/08 09:29:01;;;;;;;9.60;8.23;;;9.30;99.90;;;;;;6190612;28;20057;-78
2023/01/08 09:32:05;;;;;;;8.90;7.13;;;9.30;99.90;;;;;;6176172;28;20059;-78
2023/01/08 09:35:09;;;;;;;12.73;7.13;;;9.30;99.90;;;;;;6173411;28;20049;-78
2023/01/08 09:38:11;;;;;;;12.25;8.52;;;9.40;99.90;;;;;;6173590;28;20055;-78
2023/01/08 09:41:19;;;;;;;8.57;6.85;;;9.40;99.90;;;;;;6173493;28;20042;-77
2023/01/08 09:44:24;;;;;;;8.07;6.40;;;9.40;99.90;;;;;;6173221;28;20054;-78
2023/01/08 09:47:30;;;;;;;9.07;6.93;;;9.40;99.90;;;;;;6172887;28;20054;-78
2023/01/08 09:50:34;;;;;;;7.57;5.82;;;9.40;99.90;;;;;;6174141;28;20058;-78
2023/01/08 09:53:36;;;;;;;8.05;5.93;;;9.30;99.90;;;;;;6183045;28;20050;-78
2023/01/08 09:56:38;;;;;;;8.25;5.75;;;9.40;99.90;;;;;;6189317;28;20234;-78
2023/01/08 09:59:39;;;;;;;10.52;5.78;;;9.40;99.90;;;;;;6196697;28;20046;-78
2023/01/08 10:02:41;;;;;;;5.75;4.47;;;9.40;99.90;;;;;;6197640;28;20057;-80
2023/01/08 10:05:45;;;;;;;9.07;5.03;;;9.40;99.90;;;;;;6197823;28;20042;-78
2023/01/08 10:08:46;;;;;;;6.40;3.83;;;9.40;99.90;;;;;;6196016;28;20046;-77
2023/01/08 10:11:49;;;;;;;4.50;3.53;;;9.50;99.90;;;;;;6196901;28;20046;-78
2023/01/08 10:14:51;;;;;;;5.53;3.08;;;9.50;99.90;;;;;;6197311;28;20042;-78
2023/01/08 10:18:00;;;;;;;3.80;3.35;;;9.60;99.90;;;;;;6193108;28;20055;-78
2023/01/08 10:21:03;;;;;;;3.08;2.40;;;9.60;99.90;;;;;;6197155;28;20416;-78
2023/01/08 10:24:06;;;;;;;3.55;2.97;;;9.70;99.90;;;;;;6194089;28;20050;-79
2023/01/08 10:27:09;;;;;;;3.63;3.05;;;9.70;99.90;;;;;;6191002;28;20042;-78
2023/01/08 10:30:16;;;;;;;4.38;2.78;;;9.70;99.90;;;;;;6190022;28;20058;-78
2023/01/08 10:33:20;;;;;;;2.58;2.08;;;9.80;99.90;;;;;;6174714;28;20046;-78
2023/01/08 10:36:26;;;;;;;3.65;2.47;;;9.80;99.90;;;;;;6172738;28;20042;-78
2023/01/08 10:39:31;;;;;;;2.25;2.05;;;9.90;99.90;;;;;;6171456;28;20045;-78
2023/01/08 10:42:35;;;;;;;2.05;1.45;;;9.90;99.90;;;;;;6173385;28;20051;-77
2023/01/08 10:45:36;;;;;;;5.45;4.15;;;9.90;99.90;;;;;;6186958;28;20496;-78
2023/01/08 10:48:44;;;;;;;4.53;1.95;;;10.00;99.90;;;;;;6190423;28;20536;-78
2023/01/08 10:51:52;;;;;;;2.35;2.15;;;10.00;99.90;;;;;;6190466;28;20057;-77
2023/01/08 10:54:55;;;;;;;2.20;1.90;;;10.10;99.90;;;;;;6188545;28;20080;-79
2023/01/08 10:57:57;;;;;;;1.65;1.50;;;10.20;99.90;;;;;;6186609;28;20042;-79
2023/01/08 11:01:10;;;;;;;3.38;1.33;;;10.30;99.90;;;;;;6186953;28;20057;-80
2023/01/08 11:04:22;;;;;;;3.58;1.95;;;10.40;99.90;;;;;;6183450;28;20054;-79
2023/01/08 11:07:26;;;;;;;2.17;1.98;;;10.50;99.90;;;;;;6181842;28;20035;-79
2023/01/08 11:10:29;;;;;;;4.60;1.85;;;10.60;99.90;;;;;;6185366;28;20062;-79
2023/01/08 11:13:31;;;;;;;2.00;1.65;;;10.70;99.90;;;;;;6188218;28;20114;-80
2023/01/08 11:16:35;;;;;;;1.83;1.40;;;10.80;99.90;;;;;;6189487;28;20058;-78
2023/01/08 11:19:38;;;;;;;4.60;2.13;;;10.90;99.90;;;;;;6181643;28;20058;-78
2023/01/08 11:22:41;;;;;;;2.30;1.88;;;11.00;99.90;;;;;;6183892;28;20054;-78
2023/01/08 11:25:47;;;;;;;3.13;1.60;;;11.10;99.90;;;;;;6182613;28;20104;-77
2023/01/08 11:28:56;;;;;;;1.85;1.52;;;11.20;99.90;;;;;;6184021;28;20046;-78
2023/01/08 11:32:24;;;;;;;1.50;1.40;;;11.30;99.90;;;;;;6179043;28;20047;-80
2023/01/08 11:35:28;;;;;;;0.77;0.77;;;11.40;99.90;;;;;;6188951;28;20401;-77
2023/01/08 11:38:32;;;;;;;3.38;2.05;;;11.50;99.90;;;;;;6187114;28;20061;-79
2023/01/08 11:41:50;;;;;;;4.97;1.50;;;11.60;99.90;;;;;;6176549;28;20043;-78
2023/01/08 11:45:09;;;;;;;1.15;1.05;;;11.80;99.90;;;;;;6177992;28;20043;-78
2023/01/08 11:48:27;;;;;;;2.20;1.30;;;11.80;99.90;;;;;;6177150;28;20601;-78
2023/01/08 11:51:42;;;;;;;2.03;1.45;;;11.90;99.90;;;;;;6177452;28;20414;-77
2023/01/08 11:55:05;;;;;;;1.13;1.00;;;12.10;99.90;;;;;;6187622;28;20058;-78
2023/01/08 11:58:21;;;;;;;1.23;1.08;;;12.20;99.90;;;;;;6175671;28;20051;-77
2023/01/08 12:01:40;;;;;;;2.30;0.95;;;12.10;99.90;;;;;;6176198;28;20058;-77
2023/01/08 12:05:04;;;;;;;2.13;0.95;;;12.10;99.90;;;;;;6175965;28;20055;-77
2023/01/08 12:08:12;;;;;;;2.75;0.80;;;12.00;99.90;;;;;;6174994;28;20061;-80
2023/01/08 12:11:23;;;;;;;1.10;0.80;;;11.90;99.90;;;;;;6176576;28;20054;-79
2023/01/08 12:14:40;;;;;;;3.13;0.90;;;11.90;99.90;;;;;;6176767;28;20050;-79
2023/01/08 12:18:11;;;;;;;1.38;1.23;;;11.80;99.90;;;;;;6177967;28;20519;-78
2023/01/08 12:21:18;;;;;;;2.38;1.00;;;11.70;99.90;;;;;;6175970;28;20046;-78
2023/01/08 12:24:49;;;;;;;0.75;0.70;;;11.60;99.90;;;;;;6186882;28;20093;-79
2023/01/08 12:28:02;;;;;;;1.00;0.80;;;11.50;99.90;;;;;;6174905;28;20416;-78
2023/01/08 12:31:34;;;;;;;2.00;1.23;;;11.50;99.90;;;;;;6176881;28;20927;-78
2023/01/08 12:34:46;;;;;;;3.33;1.63;;;11.50;99.90;;;;;;6174984;28;20078;-78
2023/01/08 12:37:52;;;;;;;1.10;1.00;;;11.40;99.90;;;;;;6174844;28;20098;-77
2023/01/08 12:40:58;;;;;;;0.40;0.40;;;11.40;99.90;;;;;;6174812;28;20051;-78
2023/01/08 12:44:03;;;;;;;2.58;0.70;;;11.50;99.90;;;;;;6174935;28;20050;-77
2023/01/08 12:47:07;;;;;;;0.50;0.47;;;11.50;99.90;;;;;;6174663;28;20050;-77
2023/01/08 12:50:24;;;;;;;0.60;0.60;;;11.50;99.90;;;;;;6174827;28;20065;-78
2023/01/08 12:53:40;;;;;;;0.60;0.60;;;11.50;99.90;;;;;;6182510;28;20046;-78
2023/01/08 12:56:50;;;;;;;0.50;0.50;;;11.60;99.90;;;;;;6185706;28;20396;-78
2023/01/08 13:00:00;;;;;;;1.25;0.50;;;11.60;99.90;;;;;;6174178;28;20057;-79
2023/01/08 13:03:03;;;;;;;0.65;0.55;;;11.60;99.90;;;;;;6174284;28;20042;-78
2023/01/08 13:06:08;;;;;;;0.60;0.60;;;11.50;99.90;;;;;;6175021;28;20062;-78
2023/01/08 13:09:22;;;;;;;0.80;0.80;;;11.50;99.90;;;;;;6175570;28;20051;-78
2023/01/08 13:12:42;;;;;;;0.88;0.88;;;11.40;99.90;;;;;;6174121;28;20055;-78
2023/01/08 13:15:45;;;;;;;0.60;0.60;;;11.40;99.90;;;;;;6174150;28;20047;-78
2023/01/08 13:18:54;;;;;;;0.47;0.43;;;11.40;99.90;;;;;;6173363;28;20050;-79
2023/01/08 13:21:58;;;;;;;0.80;0.57;;;11.50;99.90;;;;;;6174022;28;20055;-79
2023/01/08 13:25:26;;;;;;;0.65;0.65;;;11.50;99.90;;;;;;6187410;28;20049;-78
2023/01/08 13:28:41;;;;;;;0.40;0.40;;;11.50;99.90;;;;;;6202413;28;20046;-78
2023/01/08 13:31:44;;;;;;;0.50;0.50;;;11.50;99.90;;;;;;6180935;28;20715;-78
2023/01/08 13:34:46;;;;;;;0.70;0.70;;;11.60;99.90;;;;;;6183103;28;20193;-79
2023/01/08 13:37:49;;;;;;;0.45;0.45;;;11.60;99.90;;;;;;6175811;28;20046;-80
2023/01/08 13:40:55;;;;;;;5.18;2.88;;;11.60;99.90;;;;;;6176032;28;20055;-78
2023/01/08 13:44:01;;;;;;;2.58;2.38;;;11.60;99.90;;;;;;6174586;28;20054;-78
2023/01/08 13:47:15;;;;;;;0.47;0.30;;;11.70;99.90;;;;;;6175701;28;20077;-80
2023/01/08 13:50:22;;;;;;;0.73;0.73;;;11.60;99.90;;;;;;6175251;28;20402;-79
2023/01/08 13:53:24;;;;;;;1.00;0.88;;;11.60;99.90;;;;;;6183818;28;20053;-79
2023/01/08 13:56:26;;;;;;;1.30;1.17;;;11.60;99.90;;;;;;6197632;28;20050;-80
2023/01/08 13:59:37;;;;;;;0.65;0.65;;;11.60;99.90;;;;;;6205079;28;20045;-80
2023/01/08 14:02:49;;;;;;;0.60;0.60;;;11.60;99.90;;;;;;6205622;28;20061;-80
2023/01/08 14:05:51;;;;;;;2.10;1.75;;;11.60;99.90;;;;;;6205166;28;20050;-79
2023/01/08 14:08:55;;;;;;;1.38;1.00;;;11.70;99.90;;;;;;6204355;28;20057;-79
2023/01/08 14:11:57;;;;;;;1.08;1.00;;;11.60;99.90;;;;;;6199474;28;20511;-79
2023/01/08 14:14:59;;;;;;;1.17;0.50;;;11.60;99.90;;;;;;6203504;28;20054;-79
2023/01/08 14:18:03;;;;;;;0.60;0.30;;;11.60;99.90;;;;;;6202636;28;20043;-79
2023/01/08 14:21:05;;;;;;;0.98;0.60;;;11.60;99.90;;;;;;6204002;28;20069;-79
2023/01/08 14:24:07;;;;;;;1.27;0.70;;;11.50;99.90;;;;;;6202760;28;20054;-79
2023/01/08 14:27:20;;;;;;;0.70;0.70;;;11.50;99.90;;;;;;6184305;28;20047;-79
2023/01/08 14:30:22;;;;;;;8.63;7.35;;;11.60;99.90;;;;;;6179117;28;20058;-78
2023/01/08 14:33:30;;;;;;;1.20;1.10;;;11.50;99.90;;;;;;6182056;28;20163;-79
2023/01/08 14:36:32;;;;;;;0.88;0.80;;;11.50;99.90;;;;;;6182623;28;20405;-80
2023/01/08 14:39:37;;;;;;;0.90;0.70;;;11.40;99.90;;;;;;6178894;28;20057;-79
2023/01/08 14:42:45;;;;;;;1.10;0.80;;;11.40;99.90;;;;;;6179802;28;20050;-78
2023/01/08 14:45:49;;;;;;;2.25;0.90;;;11.30;99.90;;;;;;6181229;28;20054;-79
2023/01/08 14:48:53;;;;;;;1.92;1.75;;;11.40;99.90;;;;;;6181259;28;20043;-77
2023/01/08 14:51:57;;;;;;;1.55;0.50;;;11.40;99.90;;;;;;6183947;28;20070;-78
2023/01/08 14:55:01;;;;;;;0.77;0.40;;;11.40;99.90;;;;;;6194677;28;20416;-78
2023/01/08 14:58:03;;;;;;;1.17;1.08;;;11.40;99.90;;;;;;6192238;28;20063;-79
2023/01/08 15:01:08;;;;;;;0.70;0.63;;;11.40;99.90;;;;;;6197743;28;20047;-79
2023/01/08 15:04:17;;;;;;;0.40;0.30;;;11.40;99.90;;;;;;6201339;28;20129;-80
2023/01/08 15:07:22;;;;;;;1.05;0.80;;;11.30;99.90;;;;;;6205364;28;20543;-80
2023/01/08 15:10:37;;;;;;;0.75;0.40;;;11.40;99.90;;;;;;6204268;28;20054;-80
2023/01/08 15:13:39;;;;;;;0.98;0.73;;;11.30;99.90;;;;;;6204532;28;20058;-79
2023/01/08 15:16:42;;;;;;;0.43;0.40;;;11.20;99.90;;;;;;6204192;28;20050;-79
2023/01/08 15:19:49;;;;;;;3.55;0.50;;;11.20;99.90;;;;;;6203827;28;20046;-79
2023/01/08 15:22:51;;;;;;;0.80;0.65;;;11.20;99.90;;;;;;6200557;28;20050;-79
2023/01/08 15:25:55;;;;;;;1.05;0.40;;;11.10;99.90;;;;;;6195688;28;20065;-79
2023/01/08 15:28:59;;;;;;;0.45;0.45;;;11.10;99.90;;;;;;6179119;28;20053;-79
2023/01/08 15:32:11;;;;;;;0.30;0.30;;;11.00;99.90;;;;;;6181187;28;20501;-79
2023/01/08 15:35:16;;;;;;;0.65;0.50;;;11.00;99.90;;;;;;6183789;28;20093;-79
2023/01/08 15:38:22;;;;;;;0.57;0.50;;;11.00;99.90;;;;;;6182015;28;20053;-79
2023/01/08 15:44:52;;;;;;;1.80;1.70;;;11.00;99.90;;;;;;6155129;28;20039;-79
2023/01/08 15:47:53;;;;;;;0.50;0.50;;;10.90;99.90;;;;;;6178036;28;20047;-79
2023/01/08 15:50:57;;;;;;;0.57;0.57;;;10.90;99.90;;;;;;6179396;28;20050;-78
2023/01/08 15:53:59;;;;;;;1.90;1.02;;;10.90;99.90;;;;;;6191241;28;20515;-79
2023/01/08 15:57:00;;;;;;;0.88;0.70;;;10.90;99.90;;;;;;6195744;28;20054;-79
2023/01/08 16:00:02;;;;;;;1.20;0.40;;;10.80;99.90;;;;;;6201405;28;20046;-78
2023/01/08 16:03:06;;;;;;;2.05;1.17;;;10.80;99.90;;;;;;6203911;28;20042;-79
2023/01/08 16:06:10;;;;;;;3.45;1.55;;;10.80;99.90;;;;;;6199289;28;20062;-79